createdAt,value
2022-12-04T00:00:13.901Z,6.10
2022-12-04T00:00:27.219Z,6.10
2022-12-04T00:00:39.018Z,6.00
2022-12-04T00:00:50.916Z,6.10
2022-12-04T00:01:20.192Z,6.10
2022-12-04T00:01:31.907Z,6.10
2022-12-04T00:01:43.669Z,6.10
2022-12-04T00:01:55.462Z,6.00
2022-12-04T00:02:07.219Z,6.10
2022-12-04T00:02:19.064Z,6.10
2022-12-04T00:02:31.016Z,6.10
2022-12-04T00:02:42.830Z,6.10
2022-12-04T00:02:54.841Z,6.10
2022-12-04T00:03:06.777Z,6.10
2022-12-04T00:03:18.616Z,6.10
2022-12-04T00:03:30.461Z,6.10
2022-12-04T00:03:42.272Z,6.20
2022-12-04T00:03:58.780Z,6.20
2022-12-04T00:04:10.638Z,6.20
2022-12-04T00:04:22.552Z,6.10
2022-12-04T00:04:34.408Z,6.10
2022-12-04T00:04:46.398Z,6.10
2022-12-04T00:04:58.751Z,6.10
2022-12-04T00:05:10.749Z,6.20
2022-12-04T00:05:22.929Z,6.20
2022-12-04T00:05:35.114Z,6.10
2022-12-04T00:05:46.928Z,6.10
2022-12-04T00:06:09.277Z,6.20
2022-12-04T00:06:21.656Z,6.20
2022-12-04T00:06:36.088Z,6.20
2022-12-04T00:06:47.889Z,6.20
2022-12-04T00:06:59.707Z,6.20
2022-12-04T00:07:11.466Z,6.20
2022-12-04T00:07:23.296Z,6.20
2022-12-04T00:07:35.248Z,6.20
2022-12-04T00:07:47.122Z,6.20
2022-12-04T00:07:58.919Z,6.20
2022-12-04T00:08:10.831Z,6.20
2022-12-04T00:08:22.647Z,6.20
2022-12-04T00:08:34.726Z,6.20
2022-12-04T00:08:46.931Z,6.20
2022-12-04T00:08:58.908Z,6.20
2022-12-04T00:09:10.816Z,6.20
2022-12-04T00:09:23.411Z,6.20
2022-12-04T00:09:35.220Z,6.20
2022-12-04T00:09:47.192Z,6.20
2022-12-04T00:09:59.053Z,6.20
2022-12-04T00:10:11.070Z,6.20
2022-12-04T00:10:22.861Z,6.20
2022-12-04T00:10:34.676Z,6.20
2022-12-04T00:10:46.488Z,6.20
2022-12-04T00:10:58.690Z,6.20
2022-12-04T00:11:11.458Z,6.20
2022-12-04T00:11:25.782Z,6.20
2022-12-04T00:11:38.247Z,6.20
2022-12-04T00:11:50.090Z,6.20
2022-12-04T00:12:01.859Z,6.20
2022-12-04T00:12:13.610Z,6.20
2022-12-04T00:12:26.047Z,6.20
2022-12-04T00:12:37.828Z,6.20
2022-12-04T00:12:49.605Z,6.20
2022-12-04T00:13:01.416Z,6.20
2022-12-04T00:13:13.192Z,6.20
2022-12-04T00:13:25.026Z,6.20
2022-12-04T00:13:37.222Z,6.30
2022-12-04T00:13:49.135Z,6.20
2022-12-04T00:14:06.428Z,6.20
2022-12-04T00:14:19.165Z,6.20
2022-12-04T00:14:31.172Z,6.20
2022-12-04T00:15:16.507Z,6.30
2022-12-04T00:15:30.808Z,6.20
2022-12-04T00:15:43.227Z,6.20
2022-12-04T00:15:55.077Z,6.30
2022-12-04T00:16:12.828Z,6.30
2022-12-04T00:16:27.865Z,6.20
2022-12-04T00:16:39.685Z,6.20
2022-12-04T00:16:51.606Z,6.20
2022-12-04T00:17:03.432Z,6.20
2022-12-04T00:17:15.230Z,6.20
2022-12-04T00:17:27.000Z,6.20
2022-12-04T00:17:38.826Z,6.20
2022-12-04T00:17:50.662Z,6.10
2022-12-04T00:18:02.414Z,6.10
2022-12-04T00:18:14.182Z,6.10
2022-12-04T00:18:27.276Z,6.10
2022-12-04T00:18:39.177Z,6.10
2022-12-04T00:18:50.938Z,6.10
2022-12-04T00:19:02.713Z,6.10
2022-12-04T00:19:14.533Z,6.20
2022-12-04T00:19:28.524Z,6.20
2022-12-04T00:19:40.357Z,6.20
2022-12-04T00:19:52.210Z,6.20
2022-12-04T00:20:04.965Z,6.20
2022-12-04T00:20:16.971Z,6.20
2022-12-04T00:20:29.087Z,6.20
2022-12-04T00:20:41.002Z,6.20
2022-12-04T00:20:52.745Z,6.20
2022-12-04T00:21:06.013Z,6.20
2022-12-04T00:21:18.944Z,6.20
2022-12-04T00:21:30.769Z,6.20
2022-12-04T00:21:42.586Z,6.20
2022-12-04T00:21:54.364Z,6.20
2022-12-04T00:22:06.271Z,6.20
2022-12-04T00:22:18.132Z,6.30
2022-12-04T00:22:29.968Z,6.20
2022-12-04T00:22:41.774Z,6.20
2022-12-04T00:22:53.580Z,6.20
2022-12-04T00:23:05.455Z,6.30
2022-12-04T00:23:17.207Z,6.20
2022-12-04T00:23:29.204Z,6.20
2022-12-04T00:23:41.660Z,6.20
2022-12-04T00:23:53.963Z,6.30
2022-12-04T00:24:06.295Z,6.20
2022-12-04T00:24:18.071Z,6.20
2022-12-04T00:24:29.789Z,6.20
2022-12-04T00:24:41.558Z,6.20
2022-12-04T00:24:53.276Z,6.20
2022-12-04T00:25:05.537Z,6.20
2022-12-04T00:25:17.616Z,6.20
2022-12-04T00:25:30.762Z,6.20
2022-12-04T00:25:42.713Z,6.20
2022-12-04T00:26:03.971Z,6.10
2022-12-04T00:26:18.294Z,6.10
2022-12-04T00:26:33.358Z,6.10
2022-12-04T00:26:48.196Z,6.10
2022-12-04T00:26:59.907Z,6.10
2022-12-04T00:27:11.663Z,6.10
2022-12-04T00:27:23.415Z,6.10
2022-12-04T00:27:35.581Z,6.00
2022-12-04T00:27:47.353Z,6.10
2022-12-04T00:27:59.210Z,6.10
2022-12-04T00:28:11.118Z,6.10
2022-12-04T00:28:22.985Z,6.10
2022-12-04T00:28:34.861Z,6.10
2022-12-04T00:28:46.872Z,6.10
2022-12-04T00:28:58.647Z,6.10
2022-12-04T00:29:10.471Z,6.10
2022-12-04T00:29:22.378Z,6.10
2022-12-04T00:29:34.095Z,6.10
2022-12-04T00:29:45.885Z,6.10
2022-12-04T00:29:57.667Z,6.10
2022-12-04T00:30:10.177Z,6.00
2022-12-04T00:30:22.007Z,6.10
2022-12-04T00:30:33.792Z,6.00
2022-12-04T00:30:45.654Z,6.00
2022-12-04T00:30:57.466Z,6.00
2022-12-04T00:31:17.617Z,6.00
2022-12-04T00:31:30.420Z,6.00
2022-12-04T00:31:42.432Z,6.10
2022-12-04T00:31:54.277Z,6.00
2022-12-04T00:32:06.764Z,6.10
2022-12-04T00:32:18.634Z,6.00
2022-12-04T00:32:30.515Z,6.00
2022-12-04T00:32:42.277Z,6.00
2022-12-04T00:32:54.125Z,6.00
2022-12-04T00:33:06.000Z,6.10
2022-12-04T00:33:17.747Z,6.00
2022-12-04T00:33:29.563Z,6.00
2022-12-04T00:33:41.396Z,6.10
2022-12-04T00:33:53.381Z,6.10
2022-12-04T00:34:08.031Z,6.10
2022-12-04T00:34:22.182Z,6.00
2022-12-04T00:34:34.313Z,6.00
2022-12-04T00:34:46.298Z,6.10
2022-12-04T00:34:58.189Z,6.10
2022-12-04T00:35:10.006Z,6.10
2022-12-04T00:35:21.778Z,6.10
2022-12-04T00:35:33.618Z,6.10
2022-12-04T00:35:45.385Z,6.10
2022-12-04T00:36:01.033Z,6.10
2022-12-04T00:36:15.880Z,6.10
2022-12-04T00:36:28.545Z,6.10
2022-12-04T00:36:40.415Z,6.10
2022-12-04T00:36:52.255Z,6.10
2022-12-04T00:37:04.100Z,6.10
2022-12-04T00:37:15.910Z,6.00
2022-12-04T00:37:28.313Z,6.00
2022-12-04T00:37:40.154Z,6.00
2022-12-04T00:37:52.001Z,6.00
2022-12-04T00:38:03.846Z,6.00
2022-12-04T00:38:15.682Z,5.90
2022-12-04T00:38:27.485Z,5.90
2022-12-04T00:38:40.078Z,5.80
2022-12-04T00:38:51.988Z,5.80
2022-12-04T00:39:04.189Z,5.80
2022-12-04T00:39:16.133Z,5.80
2022-12-04T00:39:28.289Z,5.80
2022-12-04T00:39:40.138Z,5.80
2022-12-04T00:39:52.236Z,5.80
2022-12-04T00:40:04.907Z,5.80
2022-12-04T00:40:16.919Z,5.80
2022-12-04T00:40:28.704Z,5.80
2022-12-04T00:40:40.488Z,5.80
2022-12-04T00:40:52.556Z,5.80
2022-12-04T00:41:04.680Z,5.80
2022-12-04T00:41:19.445Z,5.70
2022-12-04T00:41:32.116Z,5.80
2022-12-04T00:41:43.872Z,5.70
2022-12-04T00:41:55.677Z,5.70
2022-12-04T00:42:07.434Z,5.70
2022-12-04T00:42:19.276Z,5.70
2022-12-04T00:42:31.117Z,5.70
2022-12-04T00:42:44.131Z,5.70
2022-12-04T00:42:55.968Z,5.70
2022-12-04T00:43:07.788Z,5.70
2022-12-04T00:43:19.961Z,5.70
2022-12-04T00:43:31.975Z,5.70
2022-12-04T00:43:43.792Z,5.70
2022-12-04T00:43:55.632Z,5.70
2022-12-04T00:44:07.383Z,5.70
2022-12-04T00:44:19.194Z,5.70
2022-12-04T00:44:31.009Z,5.70
2022-12-04T00:44:42.767Z,5.70
2022-12-04T00:44:54.809Z,5.70
2022-12-04T00:45:07.260Z,5.70
2022-12-04T00:45:19.015Z,5.70
2022-12-04T00:45:30.822Z,5.70
2022-12-04T00:45:42.735Z,5.70
2022-12-04T00:45:54.639Z,5.70
2022-12-04T00:46:06.767Z,5.70
2022-12-04T00:46:18.982Z,5.70
2022-12-04T00:46:30.961Z,5.70
2022-12-04T00:46:42.949Z,5.70
2022-12-04T00:46:54.728Z,5.70
2022-12-04T00:47:06.602Z,5.70
2022-12-04T00:47:18.461Z,5.70
2022-12-04T00:47:30.273Z,5.70
2022-12-04T00:47:42.112Z,5.70
2022-12-04T00:47:53.901Z,5.70
2022-12-04T00:48:05.806Z,5.70
2022-12-04T00:48:17.670Z,5.70
2022-12-04T00:48:29.662Z,5.70
2022-12-04T00:48:41.981Z,5.70
2022-12-04T00:48:54.331Z,5.70
2022-12-04T00:49:06.098Z,5.70
2022-12-04T00:49:17.877Z,5.70
2022-12-04T00:49:29.702Z,5.70
2022-12-04T00:49:41.503Z,5.70
2022-12-04T00:49:53.647Z,5.70
2022-12-04T00:50:06.813Z,5.70
2022-12-04T00:50:18.785Z,5.60
2022-12-04T00:50:31.045Z,5.60
2022-12-04T00:50:42.808Z,5.70
2022-12-04T00:50:55.546Z,5.70
2022-12-04T00:51:10.450Z,5.70
2022-12-04T00:51:24.135Z,5.70
2022-12-04T00:51:35.948Z,5.60
2022-12-04T00:51:47.737Z,5.70
2022-12-04T00:51:59.590Z,5.70
2022-12-04T00:52:11.497Z,5.70
2022-12-04T00:52:23.270Z,5.70
2022-12-04T00:52:35.052Z,5.70
2022-12-04T00:52:46.893Z,5.70
2022-12-04T00:52:58.789Z,5.70
2022-12-04T00:53:11.520Z,5.70
2022-12-04T00:53:24.033Z,5.70
2022-12-04T00:53:35.948Z,5.70
2022-12-04T00:53:48.436Z,5.70
2022-12-04T00:54:00.308Z,5.70
2022-12-04T00:54:12.060Z,5.70
2022-12-04T00:54:23.836Z,5.70
2022-12-04T00:54:35.626Z,5.70
2022-12-04T00:54:47.437Z,5.70
2022-12-04T00:54:59.224Z,5.80
2022-12-04T00:55:11.052Z,5.70
2022-12-04T00:55:22.888Z,5.80
2022-12-04T00:55:37.285Z,5.70
2022-12-04T00:55:49.737Z,5.70
2022-12-04T00:56:10.666Z,5.70
2022-12-04T00:56:27.415Z,5.80
2022-12-04T00:56:39.673Z,5.80
2022-12-04T00:56:51.403Z,5.80
2022-12-04T00:57:03.233Z,5.80
2022-12-04T00:57:15.089Z,5.80
2022-12-04T00:57:26.840Z,5.80
2022-12-04T00:57:38.606Z,5.80
2022-12-04T00:57:50.383Z,5.80
2022-12-04T00:58:02.104Z,5.70
2022-12-04T00:58:13.884Z,5.70
2022-12-04T00:58:25.626Z,5.70
2022-12-04T00:58:37.630Z,5.70
2022-12-04T00:58:52.902Z,5.70
2022-12-04T00:59:04.899Z,5.70
2022-12-04T00:59:16.790Z,5.70
2022-12-04T00:59:28.528Z,5.70
2022-12-04T00:59:40.349Z,5.70
2022-12-04T00:59:52.220Z,5.70
2022-12-04T01:00:07.495Z,5.70
2022-12-04T01:00:19.549Z,5.70
2022-12-04T01:00:31.584Z,5.70
2022-12-04T01:00:43.531Z,5.70
2022-12-04T01:01:05.733Z,5.60
2022-12-04T01:01:19.357Z,5.60
2022-12-04T01:01:31.464Z,5.60
2022-12-04T01:01:43.448Z,5.70
2022-12-04T01:01:55.336Z,5.70
2022-12-04T01:02:07.150Z,5.70
2022-12-04T01:02:19.035Z,5.70
2022-12-04T01:02:31.218Z,5.70
2022-12-04T01:02:43.071Z,5.70
2022-12-04T01:02:54.977Z,5.70
2022-12-04T01:03:07.816Z,5.70
2022-12-04T01:03:19.688Z,5.70
2022-12-04T01:03:31.762Z,5.70
2022-12-04T01:03:43.794Z,5.70
2022-12-04T01:03:55.760Z,5.70
2022-12-04T01:04:07.543Z,5.70
2022-12-04T01:04:19.459Z,5.70
2022-12-04T01:04:31.212Z,5.70
2022-12-04T01:04:43.124Z,5.70
2022-12-04T01:04:54.916Z,5.70
2022-12-04T01:05:07.100Z,5.70
2022-12-04T01:05:19.104Z,5.70
2022-12-04T01:05:31.443Z,5.70
2022-12-04T01:05:45.447Z,5.70
2022-12-04T01:05:57.320Z,5.70
2022-12-04T01:06:26.982Z,5.70
2022-12-04T01:06:38.829Z,5.70
2022-12-04T01:06:50.599Z,5.80
2022-12-04T01:07:05.165Z,5.70
2022-12-04T01:07:17.406Z,5.70
2022-12-04T01:07:29.276Z,5.80
2022-12-04T01:07:41.282Z,5.70
2022-12-04T01:07:54.601Z,5.70
2022-12-04T01:08:06.958Z,5.70
2022-12-04T01:08:18.970Z,5.70
2022-12-04T01:08:30.964Z,5.70
2022-12-04T01:08:42.775Z,5.70
2022-12-04T01:08:55.407Z,5.70
2022-12-04T01:09:07.296Z,5.70
2022-12-04T01:09:20.082Z,5.70
2022-12-04T01:09:32.903Z,5.60
2022-12-04T01:09:44.657Z,5.60
2022-12-04T01:09:57.057Z,5.60
2022-12-04T01:10:11.526Z,5.60
2022-12-04T01:10:23.344Z,5.70
2022-12-04T01:10:35.198Z,5.70
2022-12-04T01:10:46.916Z,5.70
2022-12-04T01:10:58.642Z,5.70
2022-12-04T01:11:10.499Z,5.70
2022-12-04T01:11:23.955Z,5.70
2022-12-04T01:11:35.829Z,5.70
2022-12-04T01:11:47.637Z,5.70
2022-12-04T01:11:59.447Z,5.70
2022-12-04T01:12:14.919Z,5.70
2022-12-04T01:12:29.524Z,5.70
2022-12-04T01:12:41.259Z,5.70
2022-12-04T01:12:53.638Z,5.70
2022-12-04T01:13:05.530Z,5.70
2022-12-04T01:13:17.376Z,5.70
2022-12-04T01:13:29.158Z,5.70
2022-12-04T01:13:41.073Z,5.70
2022-12-04T01:13:52.985Z,5.70
2022-12-04T01:14:04.783Z,5.70
2022-12-04T01:14:16.546Z,5.70
2022-12-04T01:14:28.879Z,5.70
2022-12-04T01:14:40.684Z,5.70
2022-12-04T01:14:52.502Z,5.70
2022-12-04T01:15:05.301Z,5.70
2022-12-04T01:15:17.375Z,5.70
2022-12-04T01:15:29.141Z,5.70
2022-12-04T01:15:42.527Z,5.70
2022-12-04T01:15:54.374Z,5.80
2022-12-04T01:16:06.426Z,5.80
2022-12-04T01:16:24.753Z,5.70
2022-12-04T01:16:38.099Z,5.70
2022-12-04T01:16:50.157Z,5.60
2022-12-04T01:17:02.025Z,5.60
2022-12-04T01:17:14.186Z,5.70
2022-12-04T01:17:26.186Z,5.70
2022-12-04T01:17:38.105Z,5.70
2022-12-04T01:17:49.941Z,5.70
2022-12-04T01:18:01.689Z,5.70
2022-12-04T01:18:14.042Z,5.70
2022-12-04T01:18:25.797Z,5.60
2022-12-04T01:18:37.656Z,5.70
2022-12-04T01:18:49.709Z,5.70
2022-12-04T01:19:01.799Z,5.70
2022-12-04T01:19:13.619Z,5.70
2022-12-04T01:19:25.407Z,5.70
2022-12-04T01:19:37.253Z,5.70
2022-12-04T01:19:49.098Z,5.70
2022-12-04T01:20:00.864Z,5.70
2022-12-04T01:20:15.654Z,5.70
2022-12-04T01:20:27.479Z,5.70
2022-12-04T01:20:39.417Z,5.70
2022-12-04T01:20:52.163Z,5.70
2022-12-04T01:21:04.057Z,5.70
2022-12-04T01:21:16.004Z,5.70
2022-12-04T01:21:27.883Z,5.70
2022-12-04T01:21:39.904Z,5.70
2022-12-04T01:21:51.841Z,5.70
2022-12-04T01:22:04.082Z,5.70
2022-12-04T01:22:15.932Z,5.70
2022-12-04T01:22:27.721Z,5.80
2022-12-04T01:22:40.122Z,5.80
2022-12-04T01:22:51.930Z,5.80
2022-12-04T01:23:03.785Z,5.80
2022-12-04T01:23:15.827Z,5.80
2022-12-04T01:23:28.050Z,5.70
2022-12-04T01:23:40.013Z,5.70
2022-12-04T01:23:51.821Z,5.70
2022-12-04T01:24:03.854Z,5.70
2022-12-04T01:24:15.725Z,5.70
2022-12-04T01:24:27.574Z,5.70
2022-12-04T01:24:39.398Z,5.70
2022-12-04T01:24:51.195Z,5.70
2022-12-04T01:25:03.029Z,5.70
2022-12-04T01:25:14.787Z,5.70
2022-12-04T01:25:26.552Z,5.70
2022-12-04T01:25:38.324Z,5.70
2022-12-04T01:25:55.342Z,5.70
2022-12-04T01:26:07.251Z,5.70
2022-12-04T01:26:19.278Z,5.70
2022-12-04T01:26:31.231Z,5.70
2022-12-04T01:26:43.408Z,5.70
2022-12-04T01:26:55.250Z,5.70
2022-12-04T01:27:07.583Z,5.70
2022-12-04T01:27:19.390Z,5.60
2022-12-04T01:27:31.135Z,5.60
2022-12-04T01:27:42.945Z,5.60
2022-12-04T01:27:54.769Z,5.60
2022-12-04T01:28:06.581Z,5.70
2022-12-04T01:28:18.504Z,5.60
2022-12-04T01:28:30.333Z,5.60
2022-12-04T01:28:42.138Z,5.70
2022-12-04T01:28:53.970Z,5.60
2022-12-04T01:29:05.817Z,5.60
2022-12-04T01:29:17.570Z,5.60
2022-12-04T01:29:29.298Z,5.60
2022-12-04T01:29:41.274Z,5.60
2022-12-04T01:29:53.254Z,5.60
2022-12-04T01:30:06.223Z,5.60
2022-12-04T01:30:18.048Z,5.60
2022-12-04T01:30:29.867Z,5.60
2022-12-04T01:30:41.657Z,5.60
2022-12-04T01:31:11.112Z,5.70
2022-12-04T01:31:23.239Z,5.70
2022-12-04T01:31:35.092Z,5.70
2022-12-04T01:31:47.025Z,5.70
2022-12-04T01:31:58.966Z,5.70
2022-12-04T01:32:10.779Z,5.70
2022-12-04T01:32:22.557Z,5.70
2022-12-04T01:32:34.376Z,5.70
2022-12-04T01:32:46.129Z,5.70
2022-12-04T01:32:57.933Z,5.70
2022-12-04T01:33:09.717Z,5.70
2022-12-04T01:33:21.584Z,5.70
2022-12-04T01:33:34.158Z,5.70
2022-12-04T01:33:46.378Z,5.70
2022-12-04T01:33:58.213Z,5.70
2022-12-04T01:34:10.100Z,5.70
2022-12-04T01:34:21.950Z,5.70
2022-12-04T01:34:33.787Z,5.70
2022-12-04T01:34:45.716Z,5.80
2022-12-04T01:34:57.505Z,5.70
2022-12-04T01:35:09.431Z,5.80
2022-12-04T01:35:21.197Z,5.80
2022-12-04T01:35:33.062Z,5.80
2022-12-04T01:35:56.541Z,5.80
2022-12-04T01:36:12.361Z,5.80
2022-12-04T01:36:26.432Z,5.80
2022-12-04T01:36:38.244Z,5.80
2022-12-04T01:36:50.094Z,5.80
2022-12-04T01:37:01.955Z,5.80
2022-12-04T01:37:13.747Z,5.80
2022-12-04T01:37:25.562Z,5.80
2022-12-04T01:37:37.454Z,5.90
2022-12-04T01:37:49.354Z,5.90
2022-12-04T01:38:01.372Z,5.90
2022-12-04T01:38:13.185Z,5.80
2022-12-04T01:38:25.325Z,5.80
2022-12-04T01:38:37.398Z,5.80
2022-12-04T01:38:49.207Z,5.70
2022-12-04T01:39:01.458Z,5.70
2022-12-04T01:39:13.245Z,5.70
2022-12-04T01:39:25.055Z,5.70
2022-12-04T01:39:37.306Z,5.70
2022-12-04T01:39:49.141Z,5.70
2022-12-04T01:40:00.948Z,5.70
2022-12-04T01:40:17.047Z,5.60
2022-12-04T01:40:28.834Z,5.60
2022-12-04T01:40:44.623Z,5.60
2022-12-04T01:40:56.500Z,5.60
2022-12-04T01:41:08.580Z,5.60
2022-12-04T01:41:26.103Z,5.60
2022-12-04T01:41:37.977Z,5.60
2022-12-04T01:41:49.800Z,5.60
2022-12-04T01:42:01.539Z,5.60
2022-12-04T01:42:16.854Z,5.60
2022-12-04T01:42:28.703Z,5.60
2022-12-04T01:42:40.574Z,5.60
2022-12-04T01:42:52.390Z,5.60
2022-12-04T01:43:04.147Z,5.60
2022-12-04T01:43:16.222Z,5.60
2022-12-04T01:43:30.697Z,5.60
2022-12-04T01:43:42.469Z,5.60
2022-12-04T01:44:21.173Z,5.60
2022-12-04T01:44:32.933Z,5.70
2022-12-04T01:45:24.233Z,5.70
2022-12-04T01:45:42.068Z,5.70
2022-12-04T01:45:55.818Z,5.60
2022-12-04T01:46:08.703Z,5.60
2022-12-04T01:46:20.858Z,5.60
2022-12-04T01:46:32.785Z,5.60
2022-12-04T01:46:46.999Z,5.60
2022-12-04T01:47:00.455Z,5.60
2022-12-04T01:47:12.233Z,5.60
2022-12-04T01:47:23.950Z,5.60
2022-12-04T01:47:35.750Z,5.60
2022-12-04T01:47:47.570Z,5.60
2022-12-04T01:48:13.813Z,5.60
2022-12-04T01:48:32.064Z,5.60
2022-12-04T01:48:50.460Z,5.60
2022-12-04T01:49:02.245Z,5.60
2022-12-04T01:49:36.702Z,5.60
2022-12-04T01:49:48.610Z,5.60
2022-12-04T01:50:00.438Z,5.50
2022-12-04T01:50:12.324Z,5.60
2022-12-04T01:50:24.545Z,5.60
2022-12-04T01:50:36.400Z,5.60
2022-12-04T01:50:49.150Z,5.50
2022-12-04T01:51:24.665Z,5.50
2022-12-04T01:51:40.648Z,5.50
2022-12-04T01:51:56.280Z,5.50
2022-12-04T01:52:21.500Z,5.60
2022-12-04T01:52:33.324Z,5.50
2022-12-04T01:52:45.121Z,5.60
2022-12-04T01:52:56.924Z,5.50
2022-12-04T01:53:08.735Z,5.50
2022-12-04T01:53:20.772Z,5.50
2022-12-04T01:53:33.884Z,5.50
2022-12-04T01:53:52.994Z,5.50
2022-12-04T01:54:08.776Z,5.40
2022-12-04T01:54:29.788Z,5.40
2022-12-04T01:54:45.117Z,5.40
2022-12-04T01:54:59.266Z,5.50
2022-12-04T01:55:11.124Z,5.40
2022-12-04T01:55:22.893Z,5.40
2022-12-04T01:55:34.682Z,5.40
2022-12-04T01:55:46.487Z,5.40
2022-12-04T01:55:58.329Z,5.40
2022-12-04T01:56:10.100Z,5.40
2022-12-04T01:56:25.482Z,5.40
2022-12-04T01:56:43.522Z,5.40
2022-12-04T01:57:03.148Z,5.40
2022-12-04T01:57:20.211Z,5.40
2022-12-04T01:57:32.204Z,5.40
2022-12-04T01:57:45.627Z,5.40
2022-12-04T01:57:58.151Z,5.40
2022-12-04T01:58:10.167Z,5.40
2022-12-04T01:58:24.891Z,5.40
2022-12-04T01:58:40.950Z,5.40
2022-12-04T01:58:54.710Z,5.50
2022-12-04T01:59:07.272Z,5.40
2022-12-04T01:59:22.614Z,5.40
2022-12-04T01:59:40.120Z,5.40
2022-12-04T01:59:58.299Z,5.40
2022-12-04T02:00:13.601Z,5.40
2022-12-04T02:00:25.412Z,5.40
2022-12-04T02:00:37.222Z,5.40
2022-12-04T02:00:51.734Z,5.40
2022-12-04T02:01:08.714Z,5.40
2022-12-04T02:01:21.287Z,5.40
2022-12-04T02:01:38.775Z,5.40
2022-12-04T02:01:57.297Z,5.40
2022-12-04T02:02:12.387Z,5.50
2022-12-04T02:02:33.799Z,5.50
2022-12-04T02:02:46.625Z,5.50
2022-12-04T02:02:58.575Z,5.50
2022-12-04T02:03:11.035Z,5.50
2022-12-04T02:03:22.910Z,5.50
2022-12-04T02:03:34.992Z,5.50
2022-12-04T02:03:46.870Z,5.50
2022-12-04T02:03:59.552Z,5.50
2022-12-04T02:04:11.367Z,5.50
2022-12-04T02:04:23.206Z,5.50
2022-12-04T02:04:35.247Z,5.50
2022-12-04T02:04:47.001Z,5.50
2022-12-04T02:04:59.157Z,5.40
2022-12-04T02:05:13.812Z,5.50
2022-12-04T02:05:25.680Z,5.40
2022-12-04T02:05:37.501Z,5.40
2022-12-04T02:05:49.249Z,5.50
2022-12-04T02:06:01.011Z,5.50
2022-12-04T02:06:12.852Z,5.50
2022-12-04T02:06:24.596Z,5.50
2022-12-04T02:06:36.423Z,5.50
2022-12-04T02:06:48.405Z,5.40
2022-12-04T02:07:00.305Z,5.50
2022-12-04T02:07:12.233Z,5.40
2022-12-04T02:07:24.098Z,5.40
2022-12-04T02:07:36.072Z,5.50
2022-12-04T02:07:50.421Z,5.40
2022-12-04T02:08:03.105Z,5.40
2022-12-04T02:08:15.038Z,5.40
2022-12-04T02:08:26.997Z,5.40
2022-12-04T02:08:38.928Z,5.30
2022-12-04T02:08:50.680Z,5.30
2022-12-04T02:09:02.562Z,5.30
2022-12-04T02:09:14.427Z,5.30
2022-12-04T02:09:27.173Z,5.30
2022-12-04T02:09:42.222Z,5.40
2022-12-04T02:09:56.272Z,5.30
2022-12-04T02:10:09.225Z,5.30
2022-12-04T02:10:24.671Z,5.30
2022-12-04T02:10:47.903Z,5.30
2022-12-04T02:11:19.652Z,5.30
2022-12-04T02:11:54.496Z,5.30
2022-12-04T02:12:21.867Z,5.30
2022-12-04T02:13:10.919Z,5.30
2022-12-04T02:13:42.470Z,5.40
2022-12-04T02:14:07.889Z,5.30
2022-12-04T02:14:52.733Z,5.20
2022-12-04T02:15:19.258Z,5.20
2022-12-04T02:15:48.406Z,5.20
2022-12-04T02:16:22.297Z,5.20
2022-12-04T02:16:47.159Z,5.20
2022-12-04T02:17:16.939Z,5.20
2022-12-04T02:17:56.539Z,5.30
2022-12-04T02:18:38.015Z,5.30
2022-12-04T02:19:33.804Z,5.40
2022-12-04T02:20:12.636Z,5.30
2022-12-04T02:20:41.345Z,5.30
2022-12-04T02:21:18.358Z,5.30
2022-12-04T02:21:40.146Z,5.30
2022-12-04T02:21:52.503Z,5.30
2022-12-04T02:22:08.275Z,5.40
2022-12-04T02:22:43.080Z,5.40
2022-12-04T02:23:17.040Z,5.40
2022-12-04T02:23:51.701Z,5.30
2022-12-04T02:24:37.676Z,5.40
2022-12-04T02:24:58.584Z,5.40
2022-12-04T02:25:27.719Z,5.30
2022-12-04T02:25:51.981Z,5.30
2022-12-04T02:26:19.779Z,5.40
2022-12-04T02:26:50.186Z,5.40
2022-12-04T02:27:39.961Z,5.40
2022-12-04T02:28:09.604Z,5.30
2022-12-04T02:28:25.472Z,5.30
2022-12-04T02:28:53.561Z,5.20
2022-12-04T02:29:50.307Z,5.20
2022-12-04T02:30:05.423Z,5.10
2022-12-04T02:30:17.375Z,5.00
2022-12-04T02:30:30.506Z,5.00
2022-12-04T02:30:42.471Z,5.00
2022-12-04T02:30:57.724Z,5.00
2022-12-04T02:31:13.900Z,5.00
2022-12-04T02:31:53.760Z,5.00
2022-12-04T02:32:22.918Z,5.00
2022-12-04T02:32:45.578Z,5.10
2022-12-04T02:33:59.991Z,5.20
2022-12-04T02:34:34.253Z,5.20
2022-12-04T02:35:06.487Z,5.20
2022-12-04T02:35:22.470Z,5.20
2022-12-04T02:35:44.928Z,5.20
2022-12-04T02:36:21.299Z,5.30
2022-12-04T02:36:37.613Z,5.30
2022-12-04T02:37:03.220Z,5.30
2022-12-04T02:37:19.780Z,5.30
2022-12-04T02:37:40.712Z,5.30
2022-12-04T02:38:09.080Z,5.30
2022-12-04T02:38:34.325Z,5.40
2022-12-04T02:39:36.429Z,5.40
2022-12-04T02:40:09.603Z,5.40
2022-12-04T02:40:31.844Z,5.50
2022-12-04T02:40:58.652Z,5.50
2022-12-04T02:41:32.856Z,5.50
2022-12-04T02:41:56.759Z,5.50
2022-12-04T02:42:33.423Z,5.60
2022-12-04T02:42:50.255Z,5.60
2022-12-04T02:43:07.817Z,5.50
2022-12-04T02:43:25.009Z,5.60
2022-12-04T02:43:42.788Z,5.60
2022-12-04T02:44:02.807Z,5.60
2022-12-04T02:44:21.615Z,5.60
2022-12-04T02:44:38.319Z,5.60
2022-12-04T02:44:55.540Z,5.60
2022-12-04T02:45:13.968Z,5.60
2022-12-04T02:45:29.927Z,5.70
2022-12-04T02:45:59.815Z,5.70
2022-12-04T02:46:21.951Z,5.70
2022-12-04T02:46:43.992Z,5.70
2022-12-04T02:46:59.905Z,5.70
2022-12-04T02:47:40.934Z,5.70
2022-12-04T02:47:52.727Z,5.70
2022-12-04T02:48:04.877Z,5.70
2022-12-04T02:48:19.465Z,5.60
2022-12-04T02:48:32.432Z,5.60
2022-12-04T02:48:46.302Z,5.60
2022-12-04T02:49:01.197Z,5.60
2022-12-04T02:49:19.312Z,5.60
2022-12-04T02:50:25.064Z,5.50
2022-12-04T02:50:38.862Z,5.50
2022-12-04T02:50:52.205Z,5.50
2022-12-04T02:51:03.998Z,5.50
2022-12-04T02:51:17.344Z,5.50
2022-12-04T02:51:32.208Z,5.50
2022-12-04T02:51:44.172Z,5.60
2022-12-04T02:51:55.993Z,5.50
2022-12-04T02:52:10.857Z,5.60
2022-12-04T02:52:35.405Z,5.60
2022-12-04T02:52:55.828Z,5.60
2022-12-04T02:53:26.463Z,5.60
2022-12-04T02:53:42.063Z,5.50
2022-12-04T02:54:17.219Z,5.50
2022-12-04T02:54:38.799Z,5.60
2022-12-04T02:54:54.727Z,5.60
2022-12-04T02:55:32.669Z,5.60
2022-12-04T02:55:52.220Z,5.60
2022-12-04T02:56:13.565Z,5.60
2022-12-04T02:56:31.020Z,5.70
2022-12-04T02:56:43.977Z,5.70
2022-12-04T02:56:55.742Z,5.70
2022-12-04T02:57:10.996Z,5.60
2022-12-04T02:57:25.992Z,5.60
2022-12-04T02:57:41.544Z,5.60
2022-12-04T02:57:57.065Z,5.60
2022-12-04T02:58:21.693Z,5.70
2022-12-04T02:58:57.534Z,5.70
2022-12-04T02:59:15.069Z,5.70
2022-12-04T02:59:36.309Z,5.70
2022-12-04T02:59:48.931Z,5.70
2022-12-04T03:00:00.672Z,5.70
2022-12-04T03:00:13.379Z,5.80
2022-12-04T03:00:25.169Z,5.80
2022-12-04T03:00:37.082Z,5.80
2022-12-04T03:00:48.870Z,5.80
2022-12-04T03:01:01.490Z,5.80
2022-12-04T03:01:22.022Z,5.80
2022-12-04T03:01:39.161Z,5.80
2022-12-04T03:01:53.401Z,5.80
2022-12-04T03:02:20.198Z,5.80
2022-12-04T03:02:59.033Z,5.80
2022-12-04T03:03:23.765Z,5.90
2022-12-04T03:03:35.637Z,5.90
2022-12-04T03:04:01.170Z,5.90
2022-12-04T03:04:42.697Z,5.90
2022-12-04T03:04:54.815Z,5.90
2022-12-04T03:05:16.826Z,5.90
2022-12-04T03:05:43.666Z,5.90
2022-12-04T03:06:05.496Z,5.90
2022-12-04T03:06:17.344Z,6.00
2022-12-04T03:06:31.698Z,5.90
2022-12-04T03:06:45.173Z,5.90
2022-12-04T03:07:06.840Z,5.90
2022-12-04T03:07:34.239Z,6.00
2022-12-04T03:07:58.620Z,5.90
2022-12-04T03:08:17.578Z,5.90
2022-12-04T03:08:46.260Z,6.00
2022-12-04T03:09:17.604Z,6.00
2022-12-04T03:09:43.319Z,5.90
2022-12-04T03:09:59.754Z,6.00
2022-12-04T03:10:17.607Z,5.90
2022-12-04T03:10:35.305Z,5.90
2022-12-04T03:10:50.921Z,5.90
2022-12-04T03:11:02.811Z,5.90
2022-12-04T03:11:14.666Z,5.90
2022-12-04T03:11:27.304Z,5.90
2022-12-04T03:11:39.215Z,5.90
2022-12-04T03:12:13.802Z,5.90
2022-12-04T03:12:49.904Z,5.90
2022-12-04T03:13:20.190Z,5.90
2022-12-04T03:13:57.349Z,5.90
2022-12-04T03:14:24.652Z,5.80
2022-12-04T03:14:42.840Z,5.90
2022-12-04T03:15:20.716Z,5.90
2022-12-04T03:15:55.736Z,6.00
2022-12-04T03:16:16.491Z,6.00
2022-12-04T03:16:32.886Z,6.00
2022-12-04T03:16:44.766Z,6.00
2022-12-04T03:17:04.814Z,6.00
2022-12-04T03:17:40.577Z,6.00
2022-12-04T03:18:08.108Z,6.00
2022-12-04T03:18:33.659Z,6.00
2022-12-04T03:18:50.629Z,6.00
2022-12-04T03:19:19.474Z,6.10
2022-12-04T03:19:39.381Z,6.10
2022-12-04T03:19:55.233Z,6.10
2022-12-04T03:20:10.011Z,6.20
2022-12-04T03:20:21.876Z,6.10
2022-12-04T03:20:34.595Z,6.20
2022-12-04T03:20:49.039Z,6.20
2022-12-04T03:21:08.862Z,6.10
2022-12-04T03:21:25.073Z,6.10
2022-12-04T03:21:38.985Z,6.10
2022-12-04T03:22:10.645Z,6.10
2022-12-04T03:22:23.861Z,6.10
2022-12-04T03:22:37.188Z,6.10
2022-12-04T03:22:55.237Z,6.10
2022-12-04T03:23:11.705Z,6.10
2022-12-04T03:23:30.030Z,6.10
2022-12-04T03:23:53.206Z,6.20
2022-12-04T03:24:34.581Z,6.20
2022-12-04T03:24:52.555Z,6.10
2022-12-04T03:25:05.364Z,6.10
2022-12-04T03:25:17.420Z,6.00
2022-12-04T03:25:36.921Z,6.00
2022-12-04T03:26:28.911Z,6.10